sensor_id;sensor_type;location;lat;lon;timestamp;P1;durP1;ratioP1;P2;durP2;ratioP2
16634;SDS011;8431;52.458;9.998;2024-01-16T00:00:55;5.38;;;4.32;;
16634;SDS011;8431;52.458;9.998;2024-01-16T00:03:22;4.43;;;4.10;;
16634;SDS011;8431;52.458;9.998;2024-01-16T00:05:48;4.82;;;4.53;;
16634;SDS011;8431;52.458;9.998;2024-01-16T00:08:15;5.00;;;4.60;;
16634;SDS011;8431;52.458;9.998;2024-01-16T00:10:42;5.03;;;4.80;;
16634;SDS011;8431;52.458;9.998;2024-01-16T00:13:10;5.97;;;5.57;;
16634;SDS011;8431;52.458;9.998;2024-01-16T00:15:37;5.88;;;5.22;;
16634;SDS011;8431;52.458;9.998;2024-01-16T00:18:06;5.90;;;4.40;;
16634;SDS011;8431;52.458;9.998;2024-01-16T00:20:33;5.22;;;4.93;;
16634;SDS011;8431;52.458;9.998;2024-01-16T00:23:00;5.50;;;5.05;;
16634;SDS011;8431;52.458;9.998;2024-01-16T00:25:27;5.50;;;5.30;;
16634;SDS011;8431;52.458;9.998;2024-01-16T00:27:54;5.45;;;5.07;;
16634;SDS011;8431;52.458;9.998;2024-01-16T00:30:22;5.80;;;5.40;;
16634;SDS011;8431;52.458;9.998;2024-01-16T00:32:49;4.65;;;4.43;;
16634;SDS011;8431;52.458;9.998;2024-01-16T00:35:16;5.03;;;4.72;;
16634;SDS011;8431;52.458;9.998;2024-01-16T00:37:42;4.80;;;4.60;;
16634;SDS011;8431;52.458;9.998;2024-01-16T00:40:09;4.93;;;4.50;;
16634;SDS011;8431;52.458;9.998;2024-01-16T00:42:37;4.50;;;4.20;;
16634;SDS011;8431;52.458;9.998;2024-01-16T00:45:04;4.68;;;4.38;;
16634;SDS011;8431;52.458;9.998;2024-01-16T00:47:32;4.03;;;3.88;;
16634;SDS011;8431;52.458;9.998;2024-01-16T00:49:59;4.20;;;4.00;;
16634;SDS011;8431;52.458;9.998;2024-01-16T00:52:27;4.15;;;3.60;;
16634;SDS011;8431;52.458;9.998;2024-01-16T00:54:54;4.40;;;4.15;;
16634;SDS011;8431;52.458;9.998;2024-01-16T00:57:20;4.50;;;4.30;;
16634;SDS011;8431;52.458;9.998;2024-01-16T00:59:47;4.63;;;4.22;;
16634;SDS011;8431;52.458;9.998;2024-01-16T01:02:14;4.22;;;3.92;;
16634;SDS011;8431;52.458;9.998;2024-01-16T01:04:42;4.28;;;4.00;;
16634;SDS011;8431;52.458;9.998;2024-01-16T01:07:12;4.30;;;4.10;;
16634;SDS011;8431;52.458;9.998;2024-01-16T01:09:39;4.40;;;3.92;;
16634;SDS011;8431;52.458;9.998;2024-01-16T01:12:06;3.92;;;3.70;;
16634;SDS011;8431;52.458;9.998;2024-01-16T01:14:33;4.30;;;4.10;;
16634;SDS011;8431;52.458;9.998;2024-01-16T01:17:00;4.15;;;3.95;;
16634;SDS011;8431;52.458;9.998;2024-01-16T01:19:27;3.83;;;3.72;;
16634;SDS011;8431;52.458;9.998;2024-01-16T01:21:55;4.35;;;4.18;;
16634;SDS011;8431;52.458;9.998;2024-01-16T01:24:22;4.30;;;4.00;;
16634;SDS011;8431;52.458;9.998;2024-01-16T01:26:49;4.72;;;4.40;;
16634;SDS011;8431;52.458;9.998;2024-01-16T01:29:15;4.07;;;3.88;;
16634;SDS011;8431;52.458;9.998;2024-01-16T01:31:44;3.63;;;3.53;;
16634;SDS011;8431;52.458;9.998;2024-01-16T01:34:12;3.60;;;3.50;;
16634;SDS011;8431;52.458;9.998;2024-01-16T01:36:39;4.63;;;3.75;;
16634;SDS011;8431;52.458;9.998;2024-01-16T01:39:07;3.97;;;3.70;;
16634;SDS011;8431;52.458;9.998;2024-01-16T01:41:34;3.80;;;3.60;;
16634;SDS011;8431;52.458;9.998;2024-01-16T01:44:01;4.40;;;4.13;;
16634;SDS011;8431;52.458;9.998;2024-01-16T01:46:28;4.32;;;4.13;;
16634;SDS011;8431;52.458;9.998;2024-01-16T01:48:57;3.85;;;3.67;;
16634;SDS011;8431;52.458;9.998;2024-01-16T01:51:24;3.80;;;3.63;;
16634;SDS011;8431;52.458;9.998;2024-01-16T01:53:51;3.70;;;3.60;;
16634;SDS011;8431;52.458;9.998;2024-01-16T01:56:21;4.03;;;3.83;;
16634;SDS011;8431;52.458;9.998;2024-01-16T01:58:49;3.92;;;3.78;;
16634;SDS011;8431;52.458;9.998;2024-01-16T02:01:22;3.83;;;3.72;;
16634;SDS011;8431;52.458;9.998;2024-01-16T02:03:50;4.10;;;3.80;;
16634;SDS011;8431;52.458;9.998;2024-01-16T02:06:18;3.70;;;3.60;;
16634;SDS011;8431;52.458;9.998;2024-01-16T02:08:45;4.43;;;4.22;;
16634;SDS011;8431;52.458;9.998;2024-01-16T02:11:12;4.28;;;4.03;;
16634;SDS011;8431;52.458;9.998;2024-01-16T02:13:40;5.05;;;4.30;;
16634;SDS011;8431;52.458;9.998;2024-01-16T02:16:16;4.15;;;4.05;;
16634;SDS011;8431;52.458;9.998;2024-01-16T02:18:44;4.88;;;4.68;;
16634;SDS011;8431;52.458;9.998;2024-01-16T02:21:12;4.72;;;4.53;;
16634;SDS011;8431;52.458;9.998;2024-01-16T02:23:43;4.30;;;4.10;;
16634;SDS011;8431;52.458;9.998;2024-01-16T02:26:10;4.00;;;3.90;;
16634;SDS011;8431;52.458;9.998;2024-01-16T02:28:37;4.28;;;4.10;;
16634;SDS011;8431;52.458;9.998;2024-01-16T02:31:04;4.30;;;4.10;;
16634;SDS011;8431;52.458;9.998;2024-01-16T02:33:31;4.20;;;4.00;;
16634;SDS011;8431;52.458;9.998;2024-01-16T02:35:57;4.40;;;4.03;;
16634;SDS011;8431;52.458;9.998;2024-01-16T02:38:24;4.20;;;4.00;;
16634;SDS011;8431;52.458;9.998;2024-01-16T02:40:52;3.80;;;3.70;;
16634;SDS011;8431;52.458;9.998;2024-01-16T02:43:19;4.22;;;4.03;;
16634;SDS011;8431;52.458;9.998;2024-01-16T02:45:46;4.07;;;3.88;;
16634;SDS011;8431;52.458;9.998;2024-01-16T02:48:13;4.43;;;4.20;;
16634;SDS011;8431;52.458;9.998;2024-01-16T02:50:40;4.55;;;4.22;;
16634;SDS011;8431;52.458;9.998;2024-01-16T02:53:07;4.30;;;4.00;;
16634;SDS011;8431;52.458;9.998;2024-01-16T02:55:34;4.30;;;4.10;;
16634;SDS011;8431;52.458;9.998;2024-01-16T02:58:02;4.32;;;4.13;;
16634;SDS011;8431;52.458;9.998;2024-01-16T03:00:29;3.80;;;3.60;;
16634;SDS011;8431;52.458;9.998;2024-01-16T03:02:56;4.28;;;3.78;;
16634;SDS011;8431;52.458;9.998;2024-01-16T03:05:23;4.13;;;3.78;;
16634;SDS011;8431;52.458;9.998;2024-01-16T03:07:50;3.83;;;3.60;;
16634;SDS011;8431;52.458;9.998;2024-01-16T03:10:17;4.45;;;3.60;;
16634;SDS011;8431;52.458;9.998;2024-01-16T03:12:43;3.47;;;3.35;;
16634;SDS011;8431;52.458;9.998;2024-01-16T03:15:11;3.97;;;3.88;;
16634;SDS011;8431;52.458;9.998;2024-01-16T03:17:38;3.72;;;3.53;;
16634;SDS011;8431;52.458;9.998;2024-01-16T03:20:06;4.32;;;3.92;;
16634;SDS011;8431;52.458;9.998;2024-01-16T03:22:33;3.28;;;3.17;;
16634;SDS011;8431;52.458;9.998;2024-01-16T03:25:00;5.15;;;4.22;;
16634;SDS011;8431;52.458;9.998;2024-01-16T03:27:27;4.28;;;3.95;;
16634;SDS011;8431;52.458;9.998;2024-01-16T03:29:54;3.83;;;3.72;;
16634;SDS011;8431;52.458;9.998;2024-01-16T03:32:22;4.57;;;3.92;;
16634;SDS011;8431;52.458;9.998;2024-01-16T03:34:49;4.15;;;4.00;;
16634;SDS011;8431;52.458;9.998;2024-01-16T03:37:16;3.92;;;3.83;;
16634;SDS011;8431;52.458;9.998;2024-01-16T03:39:42;4.68;;;3.97;;
16634;SDS011;8431;52.458;9.998;2024-01-16T03:42:10;3.90;;;3.80;;
16634;SDS011;8431;52.458;9.998;2024-01-16T03:44:38;4.25;;;4.00;;
16634;SDS011;8431;52.458;9.998;2024-01-16T03:47:05;4.45;;;4.03;;
16634;SDS011;8431;52.458;9.998;2024-01-16T03:49:33;4.05;;;3.83;;
16634;SDS011;8431;52.458;9.998;2024-01-16T03:52:00;3.90;;;3.60;;
16634;SDS011;8431;52.458;9.998;2024-01-16T03:54:27;4.32;;;4.05;;
16634;SDS011;8431;52.458;9.998;2024-01-16T03:56:54;4.25;;;3.88;;
16634;SDS011;8431;52.458;9.998;2024-01-16T03:59:20;3.17;;;2.97;;
16634;SDS011;8431;52.458;9.998;2024-01-16T04:01:48;3.80;;;3.50;;
16634;SDS011;8431;52.458;9.998;2024-01-16T04:04:15;4.55;;;4.45;;
16634;SDS011;8431;52.458;9.998;2024-01-16T04:06:43;7.57;;;5.05;;
16634;SDS011;8431;52.458;9.998;2024-01-16T04:09:10;4.43;;;4.30;;
16634;SDS011;8431;52.458;9.998;2024-01-16T04:11:38;4.85;;;4.30;;
16634;SDS011;8431;52.458;9.998;2024-01-16T04:14:05;7.55;;;4.50;;
16634;SDS011;8431;52.458;9.998;2024-01-16T04:16:32;4.78;;;4.38;;
16634;SDS011;8431;52.458;9.998;2024-01-16T04:18:59;4.25;;;4.00;;
16634;SDS011;8431;52.458;9.998;2024-01-16T04:21:26;4.35;;;3.80;;
16634;SDS011;8431;52.458;9.998;2024-01-16T04:23:54;7.43;;;3.97;;
16634;SDS011;8431;52.458;9.998;2024-01-16T04:26:21;5.40;;;4.57;;
16634;SDS011;8431;52.458;9.998;2024-01-16T04:28:49;5.88;;;5.38;;
16634;SDS011;8431;52.458;9.998;2024-01-16T04:31:14;5.10;;;4.57;;
16634;SDS011;8431;52.458;9.998;2024-01-16T04:33:42;6.10;;;4.15;;
16634;SDS011;8431;52.458;9.998;2024-01-16T04:36:09;4.90;;;4.20;;
16634;SDS011;8431;52.458;9.998;2024-01-16T04:38:36;6.00;;;4.90;;
16634;SDS011;8431;52.458;9.998;2024-01-16T04:41:04;5.75;;;4.97;;
16634;SDS011;8431;52.458;9.998;2024-01-16T04:43:31;4.93;;;4.63;;
16634;SDS011;8431;52.458;9.998;2024-01-16T04:45:58;4.43;;;4.32;;
16634;SDS011;8431;52.458;9.998;2024-01-16T04:48:24;5.57;;;4.00;;
16634;SDS011;8431;52.458;9.998;2024-01-16T04:50:51;3.55;;;3.35;;
16634;SDS011;8431;52.458;9.998;2024-01-16T04:53:18;6.45;;;4.63;;
16634;SDS011;8431;52.458;9.998;2024-01-16T04:55:48;9.43;;;5.00;;
16634;SDS011;8431;52.458;9.998;2024-01-16T04:58:16;5.35;;;5.15;;
16634;SDS011;8431;52.458;9.998;2024-01-16T05:00:43;5.25;;;4.85;;
16634;SDS011;8431;52.458;9.998;2024-01-16T05:03:10;4.32;;;4.20;;
16634;SDS011;8431;52.458;9.998;2024-01-16T05:05:38;5.05;;;4.65;;
16634;SDS011;8431;52.458;9.998;2024-01-16T05:08:05;4.07;;;3.80;;
16634;SDS011;8431;52.458;9.998;2024-01-16T05:10:32;5.20;;;3.88;;
16634;SDS011;8431;52.458;9.998;2024-01-16T05:12:59;4.13;;;3.65;;
16634;SDS011;8431;52.458;9.998;2024-01-16T05:15:27;4.63;;;4.30;;
16634;SDS011;8431;52.458;9.998;2024-01-16T05:17:54;4.90;;;4.70;;
16634;SDS011;8431;52.458;9.998;2024-01-16T05:20:21;7.50;;;4.20;;
16634;SDS011;8431;52.458;9.998;2024-01-16T05:22:47;4.00;;;3.80;;
16634;SDS011;8431;52.458;9.998;2024-01-16T05:25:14;5.40;;;4.85;;
16634;SDS011;8431;52.458;9.998;2024-01-16T05:27:42;4.53;;;4.22;;
16634;SDS011;8431;52.458;9.998;2024-01-16T05:30:10;5.40;;;3.97;;
16634;SDS011;8431;52.458;9.998;2024-01-16T05:32:38;3.55;;;3.20;;
16634;SDS011;8431;52.458;9.998;2024-01-16T05:35:06;4.25;;;3.70;;
16634;SDS011;8431;52.458;9.998;2024-01-16T05:37:34;5.65;;;4.68;;
16634;SDS011;8431;52.458;9.998;2024-01-16T05:40:01;4.55;;;3.67;;
16634;SDS011;8431;52.458;9.998;2024-01-16T05:42:29;5.05;;;3.65;;
16634;SDS011;8431;52.458;9.998;2024-01-16T05:44:56;6.32;;;4.22;;
16634;SDS011;8431;52.458;9.998;2024-01-16T05:47:22;5.57;;;3.90;;
16634;SDS011;8431;52.458;9.998;2024-01-16T05:49:54;4.00;;;3.80;;
16634;SDS011;8431;52.458;9.998;2024-01-16T05:52:21;5.10;;;4.68;;
16634;SDS011;8431;52.458;9.998;2024-01-16T05:54:48;6.00;;;4.60;;
16634;SDS011;8431;52.458;9.998;2024-01-16T05:57:14;4.50;;;4.20;;
16634;SDS011;8431;52.458;9.998;2024-01-16T05:59:41;4.10;;;3.78;;
16634;SDS011;8431;52.458;9.998;2024-01-16T06:02:08;4.60;;;4.25;;
16634;SDS011;8431;52.458;9.998;2024-01-16T06:04:35;4.80;;;4.60;;
16634;SDS011;8431;52.458;9.998;2024-01-16T06:07:04;4.90;;;4.50;;
16634;SDS011;8431;52.458;9.998;2024-01-16T06:09:31;5.00;;;4.50;;
16634;SDS011;8431;52.458;9.998;2024-01-16T06:12:01;6.32;;;4.57;;
16634;SDS011;8431;52.458;9.998;2024-01-16T06:14:28;5.07;;;4.65;;
16634;SDS011;8431;52.458;9.998;2024-01-16T06:16:55;10.50;;;5.40;;
16634;SDS011;8431;52.458;9.998;2024-01-16T06:19:22;5.50;;;4.80;;
16634;SDS011;8431;52.458;9.998;2024-01-16T06:21:49;5.03;;;4.63;;
16634;SDS011;8431;52.458;9.998;2024-01-16T06:24:17;5.80;;;5.30;;
16634;SDS011;8431;52.458;9.998;2024-01-16T06:26:44;5.25;;;4.75;;
16634;SDS011;8431;52.458;9.998;2024-01-16T06:29:10;4.80;;;4.60;;
16634;SDS011;8431;52.458;9.998;2024-01-16T06:31:37;5.43;;;4.93;;
16634;SDS011;8431;52.458;9.998;2024-01-16T06:34:04;5.68;;;5.32;;
16634;SDS011;8431;52.458;9.998;2024-01-16T06:36:32;6.68;;;5.25;;
16634;SDS011;8431;52.458;9.998;2024-01-16T06:38:58;6.07;;;5.68;;
16634;SDS011;8431;52.458;9.998;2024-01-16T06:41:27;6.57;;;5.60;;
16634;SDS011;8431;52.458;9.998;2024-01-16T06:43:53;6.72;;;6.32;;
16634;SDS011;8431;52.458;9.998;2024-01-16T06:46:20;7.30;;;5.20;;
16634;SDS011;8431;52.458;9.998;2024-01-16T06:48:47;6.25;;;5.65;;
16634;SDS011;8431;52.458;9.998;2024-01-16T06:51:14;5.82;;;5.40;;
16634;SDS011;8431;52.458;9.998;2024-01-16T06:53:41;5.88;;;5.38;;
16634;SDS011;8431;52.458;9.998;2024-01-16T06:56:08;5.07;;;4.80;;
16634;SDS011;8431;52.458;9.998;2024-01-16T06:58:36;5.00;;;4.63;;
16634;SDS011;8431;52.458;9.998;2024-01-16T07:01:03;5.53;;;4.97;;
16634;SDS011;8431;52.458;9.998;2024-01-16T07:03:30;8.70;;;5.40;;
16634;SDS011;8431;52.458;9.998;2024-01-16T07:05:57;4.93;;;4.70;;
16634;SDS011;8431;52.458;9.998;2024-01-16T07:08:24;5.75;;;5.35;;
16634;SDS011;8431;52.458;9.998;2024-01-16T07:10:50;6.70;;;4.82;;
16634;SDS011;8431;52.458;9.998;2024-01-16T07:13:18;6.20;;;5.60;;
16634;SDS011;8431;52.458;9.998;2024-01-16T07:15:46;5.93;;;5.40;;
16634;SDS011;8431;52.458;9.998;2024-01-16T07:18:13;6.40;;;5.85;;
16634;SDS011;8431;52.458;9.998;2024-01-16T07:20:40;4.97;;;4.68;;
16634;SDS011;8431;52.458;9.998;2024-01-16T07:23:07;6.45;;;5.85;;
16634;SDS011;8431;52.458;9.998;2024-01-16T07:25:34;6.68;;;6.03;;
16634;SDS011;8431;52.458;9.998;2024-01-16T07:28:03;7.78;;;5.60;;
16634;SDS011;8431;52.458;9.998;2024-01-16T07:30:30;5.30;;;4.90;;
16634;SDS011;8431;52.458;9.998;2024-01-16T07:32:58;5.45;;;4.50;;
16634;SDS011;8431;52.458;9.998;2024-01-16T07:35:25;6.43;;;5.63;;
16634;SDS011;8431;52.458;9.998;2024-01-16T07:37:52;4.80;;;4.40;;
16634;SDS011;8431;52.458;9.998;2024-01-16T07:40:19;6.43;;;4.95;;
16634;SDS011;8431;52.458;9.998;2024-01-16T07:42:45;5.95;;;5.30;;
16634;SDS011;8431;52.458;9.998;2024-01-16T07:45:12;6.85;;;5.95;;
16634;SDS011;8431;52.458;9.998;2024-01-16T07:47:39;6.05;;;5.50;;
16634;SDS011;8431;52.458;9.998;2024-01-16T07:50:08;6.30;;;5.75;;
16634;SDS011;8431;52.458;9.998;2024-01-16T07:52:35;6.35;;;5.70;;
16634;SDS011;8431;52.458;9.998;2024-01-16T07:55:02;6.43;;;6.00;;
16634;SDS011;8431;52.458;9.998;2024-01-16T07:57:30;6.22;;;5.78;;
16634;SDS011;8431;52.458;9.998;2024-01-16T07:59:56;5.40;;;5.10;;
16634;SDS011;8431;52.458;9.998;2024-01-16T08:02:26;6.20;;;5.70;;
16634;SDS011;8431;52.458;9.998;2024-01-16T08:04:57;7.15;;;6.05;;
16634;SDS011;8431;52.458;9.998;2024-01-16T08:07:26;6.53;;;5.95;;
16634;SDS011;8431;52.458;9.998;2024-01-16T08:09:54;6.65;;;6.07;;
16634;SDS011;8431;52.458;9.998;2024-01-16T08:12:21;6.05;;;5.60;;
16634;SDS011;8431;52.458;9.998;2024-01-16T08:14:48;8.13;;;7.32;;
16634;SDS011;8431;52.458;9.998;2024-01-16T08:17:15;5.90;;;5.40;;
16634;SDS011;8431;52.458;9.998;2024-01-16T08:19:42;5.85;;;5.45;;
16634;SDS011;8431;52.458;9.998;2024-01-16T08:22:09;7.18;;;6.57;;
16634;SDS011;8431;52.458;9.998;2024-01-16T08:24:37;5.97;;;5.47;;
16634;SDS011;8431;52.458;9.998;2024-01-16T08:27:04;5.90;;;5.07;;
16634;SDS011;8431;52.458;9.998;2024-01-16T08:29:31;7.15;;;6.32;;
16634;SDS011;8431;52.458;9.998;2024-01-16T08:31:58;10.48;;;5.90;;
16634;SDS011;8431;52.458;9.998;2024-01-16T08:34:24;8.98;;;6.22;;
16634;SDS011;8431;52.458;9.998;2024-01-16T08:36:51;7.28;;;5.63;;
16634;SDS011;8431;52.458;9.998;2024-01-16T08:39:21;6.05;;;5.50;;
16634;SDS011;8431;52.458;9.998;2024-01-16T08:41:50;7.32;;;6.05;;
16634;SDS011;8431;52.458;9.998;2024-01-16T08:44:17;7.15;;;6.45;;
16634;SDS011;8431;52.458;9.998;2024-01-16T08:46:44;6.35;;;5.75;;
16634;SDS011;8431;52.458;9.998;2024-01-16T08:49:11;5.88;;;5.47;;
16634;SDS011;8431;52.458;9.998;2024-01-16T08:51:39;6.45;;;5.88;;
16634;SDS011;8431;52.458;9.998;2024-01-16T08:54:06;5.75;;;5.35;;
16634;SDS011;8431;52.458;9.998;2024-01-16T08:56:33;6.07;;;5.68;;
16634;SDS011;8431;52.458;9.998;2024-01-16T08:59:01;6.20;;;5.63;;
16634;SDS011;8431;52.458;9.998;2024-01-16T09:01:28;7.28;;;5.13;;
16634;SDS011;8431;52.458;9.998;2024-01-16T09:03:55;6.93;;;5.07;;
16634;SDS011;8431;52.458;9.998;2024-01-16T09:06:21;5.88;;;5.38;;
16634;SDS011;8431;52.458;9.998;2024-01-16T09:08:48;6.43;;;5.93;;
16634;SDS011;8431;52.458;9.998;2024-01-16T09:11:15;4.93;;;4.53;;
16634;SDS011;8431;52.458;9.998;2024-01-16T09:13:45;5.00;;;4.70;;
16634;SDS011;8431;52.458;9.998;2024-01-16T09:16:13;7.13;;;5.68;;
16634;SDS011;8431;52.458;9.998;2024-01-16T09:18:40;6.28;;;5.75;;
16634;SDS011;8431;52.458;9.998;2024-01-16T09:21:06;6.47;;;5.95;;
16634;SDS011;8431;52.458;9.998;2024-01-16T09:23:33;8.50;;;6.13;;
16634;SDS011;8431;52.458;9.998;2024-01-16T09:26:00;8.32;;;6.05;;
16634;SDS011;8431;52.458;9.998;2024-01-16T09:28:27;6.47;;;5.97;;
16634;SDS011;8431;52.458;9.998;2024-01-16T09:30:54;8.23;;;5.47;;
16634;SDS011;8431;52.458;9.998;2024-01-16T09:33:23;7.57;;;6.88;;
16634;SDS011;8431;52.458;9.998;2024-01-16T09:35:50;5.45;;;5.20;;
16634;SDS011;8431;52.458;9.998;2024-01-16T09:38:17;6.43;;;6.00;;
16634;SDS011;8431;52.458;9.998;2024-01-16T09:40:44;8.65;;;6.20;;
16634;SDS011;8431;52.458;9.998;2024-01-16T09:43:11;8.90;;;6.43;;
16634;SDS011;8431;52.458;9.998;2024-01-16T09:45:38;6.40;;;6.00;;
16634;SDS011;8431;52.458;9.998;2024-01-16T09:48:05;5.95;;;5.50;;
16634;SDS011;8431;52.458;9.998;2024-01-16T09:50:34;5.85;;;5.35;;
16634;SDS011;8431;52.458;9.998;2024-01-16T09:53:02;6.85;;;6.28;;
16634;SDS011;8431;52.458;9.998;2024-01-16T09:55:29;6.90;;;6.45;;
16634;SDS011;8431;52.458;9.998;2024-01-16T09:57:56;7.68;;;6.88;;
16634;SDS011;8431;52.458;9.998;2024-01-16T10:00:24;6.53;;;6.03;;
16634;SDS011;8431;52.458;9.998;2024-01-16T10:02:52;7.70;;;6.75;;
16634;SDS011;8431;52.458;9.998;2024-01-16T10:05:24;6.88;;;6.40;;
16634;SDS011;8431;52.458;9.998;2024-01-16T10:07:52;7.22;;;6.38;;
16634;SDS011;8431;52.458;9.998;2024-01-16T10:10:19;6.95;;;6.30;;
16634;SDS011;8431;52.458;9.998;2024-01-16T10:12:47;6.85;;;6.28;;
16634;SDS011;8431;52.458;9.998;2024-01-16T10:15:16;6.32;;;5.68;;
16634;SDS011;8431;52.458;9.998;2024-01-16T10:17:45;7.47;;;6.88;;
16634;SDS011;8431;52.458;9.998;2024-01-16T10:20:12;6.95;;;6.45;;
16634;SDS011;8431;52.458;9.998;2024-01-16T10:22:42;6.40;;;5.90;;
16634;SDS011;8431;52.458;9.998;2024-01-16T10:25:21;6.68;;;6.30;;
16634;SDS011;8431;52.458;9.998;2024-01-16T10:27:48;6.68;;;6.07;;
16634;SDS011;8431;52.458;9.998;2024-01-16T10:30:15;6.35;;;5.65;;
16634;SDS011;8431;52.458;9.998;2024-01-16T10:32:48;9.00;;;6.25;;
16634;SDS011;8431;52.458;9.998;2024-01-16T10:35:15;6.50;;;5.88;;
16634;SDS011;8431;52.458;9.998;2024-01-16T10:37:42;6.45;;;6.05;;
16634;SDS011;8431;52.458;9.998;2024-01-16T10:40:12;7.05;;;6.50;;
16634;SDS011;8431;52.458;9.998;2024-01-16T10:42:41;6.72;;;6.22;;
16634;SDS011;8431;52.458;9.998;2024-01-16T10:45:08;8.10;;;6.00;;
16634;SDS011;8431;52.458;9.998;2024-01-16T10:47:42;7.25;;;6.47;;
16634;SDS011;8431;52.458;9.998;2024-01-16T10:50:09;6.45;;;5.95;;
16634;SDS011;8431;52.458;9.998;2024-01-16T10:52:36;10.40;;;5.53;;
16634;SDS011;8431;52.458;9.998;2024-01-16T10:55:15;7.82;;;5.50;;
16634;SDS011;8431;52.458;9.998;2024-01-16T10:57:46;5.93;;;5.57;;
16634;SDS011;8431;52.458;9.998;2024-01-16T11:00:14;5.72;;;4.70;;
16634;SDS011;8431;52.458;9.998;2024-01-16T11:02:47;6.63;;;6.13;;
16634;SDS011;8431;52.458;9.998;2024-01-16T11:05:17;8.27;;;7.25;;
16634;SDS011;8431;52.458;9.998;2024-01-16T11:07:44;5.60;;;5.28;;
16634;SDS011;8431;52.458;9.998;2024-01-16T11:10:12;6.43;;;6.03;;
16634;SDS011;8431;52.458;9.998;2024-01-16T11:12:41;7.82;;;6.50;;
16634;SDS011;8431;52.458;9.998;2024-01-16T11:15:08;6.00;;;5.60;;
16634;SDS011;8431;52.458;9.998;2024-01-16T11:17:38;6.60;;;6.10;;
16634;SDS011;8431;52.458;9.998;2024-01-16T11:20:06;6.53;;;6.03;;
16634;SDS011;8431;52.458;9.998;2024-01-16T11:22:37;5.68;;;5.28;;
16634;SDS011;8431;52.458;9.998;2024-01-16T11:25:08;5.97;;;5.47;;
16634;SDS011;8431;52.458;9.998;2024-01-16T11:27:37;5.90;;;5.30;;
16634;SDS011;8431;52.458;9.998;2024-01-16T11:30:05;5.68;;;5.22;;
16634;SDS011;8431;52.458;9.998;2024-01-16T11:32:33;6.85;;;6.40;;
16634;SDS011;8431;52.458;9.998;2024-01-16T11:35:02;6.75;;;5.78;;
16634;SDS011;8431;52.458;9.998;2024-01-16T11:37:30;6.57;;;6.05;;
16634;SDS011;8431;52.458;9.998;2024-01-16T11:42:49;6.32;;;5.60;;
16634;SDS011;8431;52.458;9.998;2024-01-16T11:48:18;6.40;;;6.00;;
16634;SDS011;8431;52.458;9.998;2024-01-16T11:50:46;7.13;;;5.72;;
16634;SDS011;8431;52.458;9.998;2024-01-16T11:53:32;6.68;;;6.13;;
16634;SDS011;8431;52.458;9.998;2024-01-16T11:56:08;6.50;;;5.88;;
16634;SDS011;8431;52.458;9.998;2024-01-16T11:58:53;6.50;;;6.07;;
16634;SDS011;8431;52.458;9.998;2024-01-16T12:01:34;5.53;;;5.25;;
16634;SDS011;8431;52.458;9.998;2024-01-16T12:04:02;6.40;;;5.80;;
16634;SDS011;8431;52.458;9.998;2024-01-16T12:06:29;5.63;;;5.30;;
16634;SDS011;8431;52.458;9.998;2024-01-16T12:09:10;6.00;;;5.53;;
16634;SDS011;8431;52.458;9.998;2024-01-16T12:11:38;6.25;;;5.65;;
16634;SDS011;8431;52.458;9.998;2024-01-16T12:14:06;6.40;;;5.90;;
16634;SDS011;8431;52.458;9.998;2024-01-16T12:16:36;6.00;;;5.60;;
16634;SDS011;8431;52.458;9.998;2024-01-16T12:19:06;6.82;;;6.30;;
16634;SDS011;8431;52.458;9.998;2024-01-16T12:21:33;6.28;;;5.68;;
16634;SDS011;8431;52.458;9.998;2024-01-16T12:24:01;6.57;;;6.03;;
16634;SDS011;8431;52.458;9.998;2024-01-16T12:26:29;6.78;;;6.28;;
16634;SDS011;8431;52.458;9.998;2024-01-16T12:28:56;4.65;;;4.45;;
16634;SDS011;8431;52.458;9.998;2024-01-16T12:31:25;16.17;;;5.78;;
16634;SDS011;8431;52.458;9.998;2024-01-16T12:33:52;5.90;;;5.53;;
16634;SDS011;8431;52.458;9.998;2024-01-16T12:36:19;5.00;;;4.80;;
16634;SDS011;8431;52.458;9.998;2024-01-16T12:38:53;8.02;;;6.22;;
16634;SDS011;8431;52.458;9.998;2024-01-16T12:41:21;6.32;;;5.78;;
16634;SDS011;8431;52.458;9.998;2024-01-16T12:43:49;5.85;;;5.30;;
16634;SDS011;8431;52.458;9.998;2024-01-16T12:46:17;6.60;;;5.32;;
16634;SDS011;8431;52.458;9.998;2024-01-16T12:48:46;6.53;;;5.57;;
16634;SDS011;8431;52.458;9.998;2024-01-16T12:51:19;5.95;;;5.45;;
16634;SDS011;8431;52.458;9.998;2024-01-16T12:53:47;7.18;;;6.28;;
16634;SDS011;8431;52.458;9.998;2024-01-16T12:56:17;8.70;;;6.18;;
16634;SDS011;8431;52.458;9.998;2024-01-16T12:58:45;8.10;;;6.03;;
16634;SDS011;8431;52.458;9.998;2024-01-16T13:01:22;8.05;;;7.20;;
16634;SDS011;8431;52.458;9.998;2024-01-16T13:03:52;6.95;;;6.55;;
16634;SDS011;8431;52.458;9.998;2024-01-16T13:06:19;6.05;;;5.75;;
16634;SDS011;8431;52.458;9.998;2024-01-16T13:08:47;6.25;;;5.75;;
16634;SDS011;8431;52.458;9.998;2024-01-16T13:11:14;9.68;;;7.15;;
16634;SDS011;8431;52.458;9.998;2024-01-16T13:13:45;6.78;;;6.40;;
16634;SDS011;8431;52.458;9.998;2024-01-16T13:16:13;7.40;;;6.55;;
16634;SDS011;8431;52.458;9.998;2024-01-16T13:18:40;7.80;;;6.85;;
16634;SDS011;8431;52.458;9.998;2024-01-16T13:21:08;7.18;;;6.55;;
16634;SDS011;8431;52.458;9.998;2024-01-16T13:23:35;7.13;;;6.53;;
16634;SDS011;8431;52.458;9.998;2024-01-16T13:26:02;7.25;;;6.50;;
16634;SDS011;8431;52.458;9.998;2024-01-16T13:28:29;7.20;;;6.68;;
16634;SDS011;8431;52.458;9.998;2024-01-16T13:30:56;7.65;;;6.75;;
16634;SDS011;8431;52.458;9.998;2024-01-16T13:33:23;5.93;;;5.50;;
16634;SDS011;8431;52.458;9.998;2024-01-16T13:35:51;6.95;;;6.40;;
16634;SDS011;8431;52.458;9.998;2024-01-16T13:38:21;7.18;;;6.15;;
16634;SDS011;8431;52.458;9.998;2024-01-16T13:40:47;6.45;;;5.78;;
16634;SDS011;8431;52.458;9.998;2024-01-16T13:43:15;7.32;;;6.72;;
16634;SDS011;8431;52.458;9.998;2024-01-16T13:45:45;7.28;;;6.00;;
16634;SDS011;8431;52.458;9.998;2024-01-16T13:48:17;7.65;;;6.95;;
16634;SDS011;8431;52.458;9.998;2024-01-16T13:50:44;7.40;;;6.68;;
16634;SDS011;8431;52.458;9.998;2024-01-16T13:53:10;9.50;;;7.50;;
16634;SDS011;8431;52.458;9.998;2024-01-16T13:55:40;6.40;;;6.00;;
16634;SDS011;8431;52.458;9.998;2024-01-16T13:58:07;7.03;;;6.50;;
16634;SDS011;8431;52.458;9.998;2024-01-16T14:00:34;8.60;;;7.80;;
16634;SDS011;8431;52.458;9.998;2024-01-16T14:03:01;8.52;;;7.68;;
16634;SDS011;8431;52.458;9.998;2024-01-16T14:05:33;7.60;;;7.05;;
16634;SDS011;8431;52.458;9.998;2024-01-16T14:08:07;7.85;;;6.80;;
16634;SDS011;8431;52.458;9.998;2024-01-16T14:10:37;7.85;;;6.97;;
16634;SDS011;8431;52.458;9.998;2024-01-16T14:13:05;6.32;;;5.72;;
16634;SDS011;8431;52.458;9.998;2024-01-16T14:18:09;7.30;;;6.57;;
16634;SDS011;8431;52.458;9.998;2024-01-16T14:23:29;8.07;;;7.28;;
16634;SDS011;8431;52.458;9.998;2024-01-16T14:25:57;9.88;;;8.30;;
16634;SDS011;8431;52.458;9.998;2024-01-16T14:28:25;8.48;;;7.70;;
16634;SDS011;8431;52.458;9.998;2024-01-16T14:30:53;9.02;;;7.35;;
16634;SDS011;8431;52.458;9.998;2024-01-16T14:33:20;8.43;;;7.65;;
16634;SDS011;8431;52.458;9.998;2024-01-16T14:35:47;10.77;;;7.88;;
16634;SDS011;8431;52.458;9.998;2024-01-16T14:38:13;7.88;;;7.18;;
16634;SDS011;8431;52.458;9.998;2024-01-16T14:40:40;9.52;;;8.02;;
16634;SDS011;8431;52.458;9.998;2024-01-16T14:43:07;8.80;;;7.97;;
16634;SDS011;8431;52.458;9.998;2024-01-16T14:45:50;8.98;;;7.95;;
16634;SDS011;8431;52.458;9.998;2024-01-16T14:48:16;9.25;;;8.35;;
16634;SDS011;8431;52.458;9.998;2024-01-16T14:50:43;9.73;;;8.75;;
16634;SDS011;8431;52.458;9.998;2024-01-16T14:53:12;10.15;;;8.23;;
16634;SDS011;8431;52.458;9.998;2024-01-16T14:55:41;9.75;;;8.77;;
16634;SDS011;8431;52.458;9.998;2024-01-16T14:58:10;14.25;;;9.02;;
16634;SDS011;8431;52.458;9.998;2024-01-16T15:00:50;11.55;;;9.95;;
16634;SDS011;8431;52.458;9.998;2024-01-16T15:03:19;12.80;;;8.05;;
16634;SDS011;8431;52.458;9.998;2024-01-16T15:05:46;9.10;;;7.90;;
16634;SDS011;8431;52.458;9.998;2024-01-16T15:08:13;10.57;;;9.25;;
16634;SDS011;8431;52.458;9.998;2024-01-16T15:10:40;9.13;;;8.32;;
16634;SDS011;8431;52.458;9.998;2024-01-16T15:13:07;9.05;;;8.18;;
16634;SDS011;8431;52.458;9.998;2024-01-16T15:15:34;10.20;;;8.18;;